createdAt,value
2022-11-06T00:07:41.312Z,86.09
2022-11-06T00:27:48.157Z,85.96
2022-11-06T00:37:51.700Z,85.83
2022-11-06T00:47:55.729Z,85.81
2022-11-06T00:57:58.851Z,85.81
2022-11-06T01:08:02.305Z,85.79
2022-11-06T01:18:05.431Z,85.87
2022-11-06T01:28:23.751Z,85.95
2022-11-06T01:38:27.568Z,85.72
2022-11-06T01:48:31.315Z,85.68
2022-11-06T01:58:36.292Z,85.61
2022-11-06T02:19:06.555Z,85.47
2022-11-06T02:29:23.777Z,85.59
2022-11-06T02:39:29.896Z,85.25
2022-11-06T02:49:40.108Z,85.33
2022-11-06T02:59:47.711Z,85.13
2022-11-06T03:09:51.507Z,85.17
2022-11-06T03:20:00.745Z,85.20
2022-11-06T03:30:11.386Z,85.25
2022-11-06T03:40:19.666Z,85.25
2022-11-06T03:50:26.106Z,85.14
2022-11-06T04:00:30.163Z,85.15
2022-11-06T04:10:52.052Z,85.29
2022-11-06T04:21:21.734Z,85.15
2022-11-06T04:31:24.786Z,85.51
2022-11-06T04:41:29.769Z,85.44
2022-11-06T04:51:37.913Z,85.33
2022-11-06T05:01:41.700Z,85.45
2022-11-06T05:11:45.589Z,85.52
2022-11-06T05:22:07.494Z,85.55
2022-11-06T05:32:10.947Z,85.51
2022-11-06T05:42:14.429Z,85.67
2022-11-06T05:52:17.870Z,85.71
2022-11-06T06:02:21.385Z,85.63
2022-11-06T06:12:25.992Z,85.74
2022-11-06T06:22:29.404Z,85.86
2022-11-06T06:32:33.063Z,85.78
2022-11-06T06:42:36.737Z,85.92
2022-11-06T06:52:40.170Z,85.98
2022-11-06T07:02:43.663Z,85.75
2022-11-06T07:12:47.281Z,85.73
2022-11-06T07:22:50.351Z,85.82
2022-11-06T07:32:54.509Z,86.55
2022-11-06T07:43:03.047Z,86.70
2022-11-06T07:53:06.564Z,85.98
2022-11-06T08:03:10.054Z,86.29
2022-11-06T08:13:15.908Z,86.35
2022-11-06T08:23:19.507Z,84.91
2022-11-06T08:43:27.488Z,84.44
2022-11-06T08:53:31.064Z,84.44
2022-11-06T09:03:34.837Z,84.68
2022-11-06T09:13:38.730Z,84.48
2022-11-06T09:23:41.916Z,84.56
2022-11-06T09:33:45.335Z,84.73
2022-11-06T09:44:05.067Z,84.74
2022-11-06T09:54:10.121Z,84.60
2022-11-06T10:04:24.433Z,84.56
2022-11-06T10:14:31.220Z,84.11
2022-11-06T10:24:39.697Z,83.32
2022-11-06T10:34:46.465Z,82.51
2022-11-06T10:44:53.403Z,82.48
2022-11-06T10:55:01.615Z,81.74
2022-11-06T11:05:10.366Z,81.10
2022-11-06T11:15:17.827Z,80.81
2022-11-06T11:25:24.986Z,79.65
2022-11-06T11:35:31.093Z,79.18
2022-11-06T11:45:35.090Z,78.53
2022-11-06T11:55:39.235Z,78.02
2022-11-06T12:05:42.788Z,77.65
2022-11-06T12:15:51.004Z,77.33
2022-11-06T12:25:56.722Z,77.06
2022-11-06T12:36:02.601Z,76.95
2022-11-06T12:46:18.349Z,76.56
2022-11-06T12:56:24.761Z,76.06
2022-11-06T13:06:28.795Z,75.91
2022-11-06T13:16:32.448Z,75.85
2022-11-06T13:26:39.587Z,75.19
2022-11-06T13:36:44.736Z,74.96
2022-11-06T13:46:49.502Z,74.58
2022-11-06T13:57:06.184Z,74.07
2022-11-06T14:07:12.393Z,73.86
2022-11-06T14:17:19.751Z,73.62
2022-11-06T14:27:59.871Z,73.44
2022-11-06T14:38:10.685Z,73.77
2022-11-06T14:48:25.926Z,73.75
2022-11-06T14:58:28.673Z,74.11
2022-11-06T15:09:06.516Z,74.43
2022-11-06T15:19:11.693Z,75.05
2022-11-06T15:29:26.693Z,75.43
2022-11-06T15:39:32.625Z,76.06
2022-11-06T15:49:36.061Z,76.31
2022-11-06T15:59:39.519Z,76.47
2022-11-06T16:09:43.846Z,76.86
2022-11-06T16:19:48.678Z,77.27
2022-11-06T16:29:51.889Z,77.61
2022-11-06T16:39:56.522Z,77.82
2022-11-06T16:50:01.510Z,78.13
2022-11-06T17:00:04.374Z,78.58
2022-11-06T17:10:40.414Z,78.83
2022-11-06T17:20:45.879Z,79.20
2022-11-06T17:30:49.821Z,79.60
2022-11-06T17:40:53.573Z,79.78
2022-11-06T17:51:15.902Z,79.78
2022-11-06T18:01:19.652Z,79.87
2022-11-06T18:11:23.158Z,80.13
2022-11-06T18:21:27.049Z,80.30
2022-11-06T18:31:29.768Z,80.72
2022-11-06T18:41:33.978Z,80.82
2022-11-06T18:51:37.118Z,81.24
2022-11-06T19:01:40.815Z,81.05
2022-11-06T19:11:47.637Z,81.33
2022-11-06T19:21:50.865Z,81.53
2022-11-06T19:31:54.913Z,81.73
2022-11-06T19:42:00.786Z,82.11
2022-11-06T19:52:42.895Z,82.10
2022-11-06T20:02:27.070Z,82.32
2022-11-06T20:12:30.748Z,82.42
2022-11-06T20:22:34.274Z,82.49
2022-11-06T20:42:41.037Z,82.78
2022-11-06T20:52:44.349Z,82.84
2022-11-06T21:02:48.274Z,82.81
2022-11-06T21:12:52.578Z,82.94
2022-11-06T21:22:56.021Z,83.07
2022-11-06T21:32:59.620Z,83.16
2022-11-06T21:43:02.808Z,83.35
2022-11-06T21:53:24.453Z,83.20
2022-11-06T22:03:28.051Z,83.15
2022-11-06T22:13:31.749Z,83.51
2022-11-06T22:23:35.328Z,83.75
2022-11-06T22:33:38.983Z,84.21
2022-11-06T22:43:44.037Z,84.34
2022-11-06T22:53:49.785Z,84.52
2022-11-06T23:03:54.033Z,84.54
2022-11-06T23:13:58.837Z,84.77
2022-11-06T23:24:03.689Z,85.03
2022-11-06T23:34:07.166Z,85.04
2022-11-06T23:44:30.831Z,85.09
2022-11-06T23:54:34.784Z,85.33
